createdAt,value
2023-02-09T00:02:14.456Z,3.55
2023-02-09T00:07:17.229Z,3.13
2023-02-09T00:12:38.730Z,6.20
2023-02-09T00:17:41.406Z,3.33
2023-02-09T00:22:44.422Z,2.57
2023-02-09T00:27:48.290Z,3.60
2023-02-09T00:32:50.839Z,2.03
2023-02-09T00:37:53.449Z,2.97
2023-02-09T00:42:57.396Z,3.63
2023-02-09T00:48:00.526Z,6.47
2023-02-09T00:53:03.398Z,5.50
2023-02-09T00:58:07.262Z,1.80
2023-02-09T01:03:09.966Z,5.32
2023-02-09T01:08:12.813Z,3.30
2023-02-09T01:13:16.809Z,3.57
2023-02-09T01:18:19.466Z,4.00
2023-02-09T01:23:22.012Z,2.00
2023-02-09T01:28:26.238Z,4.20
2023-02-09T01:38:31.990Z,3.77
2023-02-09T01:43:49.510Z,4.77
2023-02-09T01:48:55.296Z,4.83
2023-02-09T01:53:58.637Z,3.73
2023-02-09T01:59:01.620Z,1.77
2023-02-09T02:04:06.672Z,2.47
2023-02-09T02:09:10.882Z,0.80
2023-02-09T02:14:28.548Z,2.45
2023-02-09T02:19:42.719Z,1.67
2023-02-09T02:24:54.277Z,3.00
2023-02-09T02:30:13.310Z,3.20
2023-02-09T02:35:20.171Z,0.70
2023-02-09T02:40:26.806Z,1.40
2023-02-09T02:45:33.813Z,1.07
2023-02-09T02:50:40.270Z,1.97
2023-02-09T02:55:44.050Z,1.83
2023-02-09T03:00:49.196Z,0.98
2023-02-09T03:05:53.809Z,1.40
2023-02-09T03:10:56.722Z,1.43
2023-02-09T03:16:06.228Z,2.43
2023-02-09T03:21:15.458Z,1.80
2023-02-09T03:26:20.433Z,1.80
2023-02-09T03:31:23.935Z,1.80
2023-02-09T03:36:32.754Z,1.70
2023-02-09T03:41:35.524Z,2.87
2023-02-09T03:46:38.299Z,2.20
2023-02-09T03:51:42.866Z,2.10
2023-02-09T03:56:45.833Z,2.70
2023-02-09T04:01:48.659Z,3.00
2023-02-09T04:06:53.277Z,7.43
2023-02-09T04:11:58.448Z,3.97
2023-02-09T04:17:01.385Z,4.03
2023-02-09T04:22:05.415Z,3.10
2023-02-09T04:27:08.139Z,5.68
2023-02-09T04:32:10.734Z,6.00
2023-02-09T04:37:16.099Z,3.07
2023-02-09T04:42:18.699Z,3.77
2023-02-09T04:47:21.246Z,3.87
2023-02-09T04:52:25.707Z,4.37
2023-02-09T04:57:45.620Z,1.77
2023-02-09T05:02:48.270Z,5.00
2023-02-09T05:07:52.242Z,1.43
2023-02-09T05:12:55.087Z,4.10
2023-02-09T05:17:57.709Z,5.17
2023-02-09T05:23:01.865Z,3.83
2023-02-09T05:28:04.968Z,5.28
2023-02-09T05:33:07.805Z,4.70
2023-02-09T05:38:11.994Z,0.93
2023-02-09T05:48:17.321Z,5.73
2023-02-09T05:53:21.553Z,10.80
2023-02-09T06:03:26.963Z,4.37
2023-02-09T06:08:31.440Z,7.20
2023-02-09T06:13:34.774Z,2.43
2023-02-09T06:18:38.224Z,9.13
2023-02-09T06:23:42.654Z,4.13
2023-02-09T06:28:45.615Z,11.10
2023-02-09T06:33:48.426Z,4.47
2023-02-09T06:38:52.671Z,5.57
2023-02-09T06:48:59.539Z,5.63
2023-02-09T06:54:03.879Z,4.77
2023-02-09T06:59:06.712Z,5.40
2023-02-09T07:04:09.368Z,5.90
2023-02-09T07:09:13.411Z,2.43
2023-02-09T07:14:16.116Z,7.35
2023-02-09T07:19:18.994Z,7.27
2023-02-09T07:24:23.060Z,7.40
2023-02-09T07:29:25.816Z,8.32
2023-02-09T07:34:28.509Z,9.23
2023-02-09T07:39:33.044Z,8.45
2023-02-09T07:44:35.759Z,7.97
2023-02-09T07:49:38.335Z,9.13
2023-02-09T07:54:42.902Z,9.25
2023-02-09T07:59:45.798Z,8.90
2023-02-09T08:04:48.926Z,8.93
2023-02-09T08:09:53.010Z,8.37
2023-02-09T08:14:55.730Z,10.25
2023-02-09T08:20:00.875Z,8.55
2023-02-09T08:25:05.779Z,10.05
2023-02-09T08:30:08.931Z,10.55
2023-02-09T08:35:12.077Z,10.70
2023-02-09T08:40:15.967Z,11.85
2023-02-09T08:45:19.923Z,10.43
2023-02-09T08:50:22.612Z,9.95
2023-02-09T08:55:25.409Z,10.63
2023-02-09T09:00:29.795Z,9.85
2023-02-09T09:05:32.419Z,8.68
2023-02-09T09:10:35.422Z,7.85
2023-02-09T09:15:39.572Z,8.82
2023-02-09T09:20:42.452Z,8.80
2023-02-09T09:25:46.350Z,8.18
2023-02-09T09:30:50.665Z,8.25
2023-02-09T09:35:53.245Z,7.82
2023-02-09T09:40:55.962Z,8.05
2023-02-09T09:51:06.012Z,6.93
2023-02-09T09:56:10.276Z,6.80
2023-02-09T10:01:13.697Z,8.05
2023-02-09T10:06:19.135Z,7.97
2023-02-09T10:11:25.005Z,7.68
2023-02-09T10:16:29.177Z,7.40
2023-02-09T10:21:35.936Z,12.43
2023-02-09T10:26:40.619Z,6.72
2023-02-09T10:31:44.931Z,6.45
2023-02-09T10:36:50.194Z,7.07
2023-02-09T10:41:54.065Z,6.60
2023-02-09T10:47:09.918Z,6.88
2023-02-09T10:52:19.641Z,6.88
2023-02-09T10:57:26.134Z,6.53
2023-02-09T11:02:38.042Z,6.30
2023-02-09T11:07:43.692Z,5.90
2023-02-09T11:13:01.860Z,5.90
2023-02-09T11:18:07.922Z,5.72
2023-02-09T11:23:32.575Z,6.20
2023-02-09T11:28:58.308Z,5.32
2023-02-09T11:34:18.406Z,6.45
2023-02-09T11:39:38.392Z,5.30
2023-02-09T11:44:45.895Z,7.57
2023-02-09T11:50:00.788Z,6.90
2023-02-09T11:55:21.688Z,8.25
2023-02-09T12:00:31.435Z,7.85
2023-02-09T12:05:51.297Z,8.80
2023-02-09T12:10:59.580Z,7.47
2023-02-09T12:16:06.583Z,7.53
2023-02-09T12:21:29.234Z,7.20
2023-02-09T12:26:43.579Z,7.72
2023-02-09T12:32:04.033Z,7.55
2023-02-09T12:37:29.091Z,7.88
2023-02-09T12:42:45.677Z,7.20
2023-02-09T12:48:07.127Z,7.18
2023-02-09T12:53:34.301Z,7.75
2023-02-09T12:58:57.414Z,8.63
2023-02-09T13:04:08.621Z,8.23
2023-02-09T13:09:21.830Z,8.43
2023-02-09T13:14:28.587Z,8.73
2023-02-09T13:19:50.427Z,8.00
2023-02-09T13:25:21.689Z,8.63
2023-02-09T13:30:33.574Z,8.43
2023-02-09T13:41:09.286Z,7.50
2023-02-09T13:46:29.089Z,8.10
2023-02-09T13:51:37.178Z,8.27
2023-02-09T13:56:47.641Z,7.95
2023-02-09T14:01:59.715Z,7.72
2023-02-09T14:07:23.042Z,8.32
2023-02-09T14:13:01.167Z,8.38
2023-02-09T14:18:32.774Z,7.25
2023-02-09T14:23:41.018Z,7.90
2023-02-09T14:28:51.101Z,6.63
2023-02-09T14:34:05.456Z,7.28
2023-02-09T14:39:13.592Z,6.45
2023-02-09T14:44:24.503Z,7.00
2023-02-09T14:49:44.732Z,6.50
2023-02-09T14:54:55.369Z,7.40
2023-02-09T15:00:17.950Z,7.75
2023-02-09T15:05:46.363Z,7.68
2023-02-09T15:10:58.957Z,7.57
2023-02-09T15:16:09.153Z,7.75
2023-02-09T15:21:15.972Z,7.32
2023-02-09T15:26:41.989Z,7.85
2023-02-09T15:31:48.218Z,7.88
2023-02-09T15:37:19.296Z,6.75
2023-02-09T15:42:43.680Z,7.53
2023-02-09T15:47:58.801Z,7.35
2023-02-09T15:53:06.659Z,7.65
2023-02-09T15:58:14.043Z,8.05
2023-02-09T16:08:40.612Z,7.65
2023-02-09T16:13:45.872Z,7.60
2023-02-09T16:18:55.178Z,8.02
2023-02-09T16:24:09.816Z,8.27
2023-02-09T16:29:19.907Z,9.10
2023-02-09T16:34:25.723Z,7.97
2023-02-09T16:39:33.603Z,7.80
2023-02-09T16:44:40.974Z,8.90
2023-02-09T16:50:05.518Z,8.33
2023-02-09T16:55:18.725Z,8.43
2023-02-09T17:00:31.899Z,7.80
2023-02-09T17:05:38.634Z,8.68
2023-02-09T17:10:50.610Z,8.37
2023-02-09T17:16:00.698Z,8.20
2023-02-09T17:21:13.275Z,8.33
2023-02-09T17:31:53.821Z,8.13
2023-02-09T17:37:01.563Z,7.53
2023-02-09T17:42:09.292Z,8.40
2023-02-09T17:47:24.475Z,9.17
2023-02-09T17:52:36.851Z,8.10
2023-02-09T17:57:44.412Z,7.80
2023-02-09T18:02:52.247Z,10.30
2023-02-09T18:08:02.311Z,7.87
2023-02-09T18:13:06.903Z,10.57
2023-02-09T18:18:13.335Z,12.60
2023-02-09T18:23:27.171Z,11.13
2023-02-09T18:28:35.601Z,10.48
2023-02-09T18:33:45.646Z,9.63
2023-02-09T18:39:04.792Z,12.50
2023-02-09T18:44:12.852Z,11.90
2023-02-09T18:49:30.171Z,12.27
2023-02-09T18:54:36.291Z,11.47
2023-02-09T18:59:50.534Z,11.60
2023-02-09T19:05:02.041Z,10.70
2023-02-09T19:10:08.396Z,11.20
2023-02-09T19:15:17.432Z,11.73
2023-02-09T19:20:22.266Z,11.70
2023-02-09T19:25:29.035Z,11.53
2023-02-09T19:30:35.432Z,13.23
2023-02-09T19:35:52.595Z,12.13
2023-02-09T19:41:10.819Z,11.93
2023-02-09T19:46:31.301Z,12.40
2023-02-09T19:51:39.048Z,12.33
2023-02-09T19:56:45.535Z,12.80
2023-02-09T20:01:52.453Z,13.03
2023-02-09T20:07:00.794Z,13.50
2023-02-09T20:12:06.932Z,13.77
2023-02-09T20:17:11.645Z,13.63
2023-02-09T20:22:26.093Z,13.05
2023-02-09T20:27:41.533Z,12.27
2023-02-09T20:38:34.876Z,7.47
2023-02-09T20:43:58.881Z,10.43
2023-02-09T20:49:06.318Z,10.53
2023-02-09T20:54:14.972Z,12.10
2023-02-09T21:05:01.366Z,11.63
2023-02-09T21:10:04.089Z,12.07
2023-02-09T21:15:06.999Z,11.43
2023-02-09T21:20:11.177Z,11.73
2023-02-09T21:25:14.797Z,12.75
2023-02-09T21:30:17.836Z,14.05
2023-02-09T21:35:21.799Z,15.60
2023-02-09T21:40:24.760Z,14.50
2023-02-09T21:45:27.586Z,15.07
2023-02-09T21:50:31.643Z,16.13
2023-02-09T21:55:34.859Z,14.65
2023-02-09T22:00:37.604Z,15.33
2023-02-09T22:05:41.817Z,14.70
2023-02-09T22:10:44.355Z,15.48
2023-02-09T22:15:47.330Z,14.53
2023-02-09T22:20:51.855Z,14.10
2023-02-09T22:25:58.526Z,15.07
2023-02-09T22:31:05.968Z,14.43
2023-02-09T22:36:12.426Z,14.37
2023-02-09T22:41:22.210Z,12.77
2023-02-09T22:46:25.728Z,10.33
2023-02-09T22:51:30.533Z,12.70
2023-02-09T22:56:33.631Z,13.63
2023-02-09T23:01:36.419Z,13.57
2023-02-09T23:06:40.746Z,13.33
2023-02-09T23:16:47.006Z,10.07
2023-02-09T23:21:51.701Z,9.97
2023-02-09T23:26:54.772Z,9.87
2023-02-09T23:31:58.174Z,8.30
2023-02-09T23:37:13.293Z,6.93
2023-02-09T23:42:21.539Z,6.00
2023-02-09T23:47:24.360Z,7.60
2023-02-09T23:52:28.571Z,2.90
2023-02-09T23:57:31.469Z,7.43
